Time;durP1;ratioP1;P1;durP2;ratioP2;P2;SDS_P1;SDS_P2;PMS_P1;PMS_P2;Temp;Humidity;BMP_temperature;BMP_pressure;BME280_temperature;BME280_humidity;BME280_pressure;Samples;Min_cycle;Max_cycle;Signal;HPM_P1;HPM_P2
2022/11/27 00:00:32;;;;;;;6.42;4.95;;;;;;;1.70;83.92;100390.13;1797688;79;21544;-39
2022/11/27 00:02:59;;;;;;;5.53;4.25;;;;;;;1.71;84.04;100394.40;1797604;79;20978;-38
2022/11/27 00:05:26;;;;;;;5.10;4.42;;;;;;;1.78;83.72;100393.30;1797764;79;20955;-38
2022/11/27 00:07:53;;;;;;;6.12;4.28;;;;;;;1.85;82.78;100394.59;1797734;79;20947;-38
2022/11/27 00:10:20;;;;;;;5.65;4.47;;;;;;;1.86;82.19;100396.72;1797799;79;21120;-38
2022/11/27 00:12:46;;;;;;;5.58;4.40;;;;;;;1.81;81.72;100398.89;1797601;79;21010;-38
2022/11/27 00:15:14;;;;;;;5.40;4.40;;;;;;;1.71;81.25;100402.42;1797874;79;20962;-38
2022/11/27 00:17:41;;;;;;;5.33;4.62;;;;;;;1.72;81.37;100406.70;1797840;79;20998;-39
2022/11/27 00:20:09;;;;;;;6.42;4.50;;;;;;;1.81;81.14;100406.91;1797818;79;21012;-38
2022/11/27 00:22:36;;;;;;;6.47;4.40;;;;;;;1.85;80.89;100402.61;1798236;79;21094;-38
2022/11/27 00:25:04;;;;;;;5.45;4.55;;;;;;;1.85;80.79;100405.81;1797704;79;21011;-38
2022/11/27 00:27:31;;;;;;;5.62;3.95;;;;;;;1.85;80.95;100402.61;1797964;79;21017;-38
2022/11/27 00:29:57;;;;;;;4.95;4.00;;;;;;;1.91;80.54;100407.39;1797655;79;21397;-38
2022/11/27 00:32:24;;;;;;;3.98;3.58;;;;;;;1.96;80.31;100402.81;1797630;79;21015;-39
2022/11/27 00:34:51;;;;;;;6.10;4.10;;;;;;;2.04;79.95;100401.42;1797682;79;21226;-38
2022/11/27 00:37:18;;;;;;;6.72;4.35;;;;;;;2.06;79.88;100406.77;1797913;79;20970;-38
2022/11/27 00:39:44;;;;;;;4.80;4.08;;;;;;;2.08;79.49;100399.25;1798028;79;20896;-38
2022/11/27 00:42:11;;;;;;;4.42;3.80;;;;;;;2.08;79.42;100396.58;1767018;79;21010;-38
2022/11/27 00:44:38;;;;;;;4.90;3.62;;;;;;;2.10;78.83;100393.63;1797983;79;21011;-38
2022/11/27 00:47:05;;;;;;;4.62;3.77;;;;;;;2.13;78.64;100397.88;1797928;79;21126;-38
2022/11/27 03:04:55;;;;;;;5.67;4.62;;;;;;;1.60;84.39;100374.13;1822791;76;22711;-38
2022/11/27 03:07:31;;;;;;;6.15;4.50;;;;;;;1.76;83.79;100384.22;1794137;79;20942;-38
2022/11/27 03:10:04;;;;;;;5.50;4.08;;;;;;;1.82;83.99;100390.34;1801031;78;20952;-38
2022/11/27 03:12:31;;;;;;;5.28;3.90;;;;;;;1.93;83.98;100394.02;1826459;78;20979;-38
2022/11/27 03:14:58;;;;;;;5.20;4.10;;;;;;;2.00;83.71;100402.52;1794835;78;20984;-38
2022/11/27 03:17:54;;;;;;;5.12;3.98;;;;;;;2.10;83.05;100404.33;1826407;78;21363;-38
2022/11/27 03:20:25;;;;;;;4.60;3.85;;;;;;;2.16;82.09;100398.68;1826454;78;20965;-38
2022/11/27 03:22:54;;;;;;;6.00;4.08;;;;;;;2.19;81.64;100408.01;1826187;78;21075;-38
2022/11/27 03:25:22;;;;;;;4.92;4.05;;;;;;;2.19;81.15;100410.15;1826245;78;20925;-38
2022/11/27 03:28:01;;;;;;;6.60;4.97;;;;;;;2.16;80.78;100417.41;1826274;78;21195;-38
2022/11/27 03:30:28;;;;;;;5.12;4.03;;;;;;;2.13;80.38;100405.12;1826310;78;20995;-38
2022/11/27 03:32:55;;;;;;;6.37;4.75;;;;;;;2.19;80.04;100411.48;1826393;78;21079;-38
2022/11/27 03:35:24;;;;;;;6.75;5.03;;;;;;;2.28;79.60;100404.20;1826175;78;21132;-38
2022/11/27 03:37:51;;;;;;;6.37;4.80;;;;;;;2.30;79.03;100407.41;1826454;78;20984;-38
2022/11/27 03:40:20;;;;;;;7.37;5.20;;;;;;;2.26;78.91;100409.84;1826278;78;21028;-38
2022/11/27 03:43:07;;;;;;;6.42;4.67;;;;;;;2.27;78.79;100408.77;1826315;78;20980;-38
2022/11/27 03:45:56;;;;;;;7.28;5.25;;;;;;;2.22;78.35;100403.99;1826411;78;21020;-38
2022/11/27 03:48:41;;;;;;;6.53;4.35;;;;;;;2.21;78.03;100399.72;1826400;78;21123;-38
2022/11/27 03:51:15;;;;;;;6.62;4.67;;;;;;;2.21;77.60;100400.52;1826161;78;21536;-39
2022/11/27 03:54:10;;;;;;;7.00;4.97;;;;;;;2.11;77.54;100405.40;1794926;78;20968;-38
2022/11/27 03:56:42;;;;;;;6.50;5.28;;;;;;;2.01;77.46;100401.98;1826356;78;21018;-39
2022/11/27 03:59:14;;;;;;;7.42;5.28;;;;;;;1.90;77.76;100405.25;1826232;78;20932;-38
2022/11/27 04:01:41;;;;;;;5.67;4.20;;;;;;;1.93;77.79;100400.70;1826441;78;21133;-38
2022/11/27 04:04:08;;;;;;;8.75;5.08;;;;;;;2.01;77.84;100404.66;1826091;78;21040;-38
2022/11/27 04:06:35;;;;;;;6.12;4.92;;;;;;;2.11;77.81;100405.94;1794519;78;21059;-39
2022/11/27 04:09:03;;;;;;;6.83;5.05;;;;;;;2.16;77.73;100407.23;1826539;78;20999;-38
2022/11/27 04:11:30;;;;;;;8.10;5.10;;;;;;;2.19;77.55;100410.15;1826465;78;21035;-39
2022/11/27 04:13:58;;;;;;;6.00;4.28;;;;;;;2.18;77.29;100413.09;1826528;78;21072;-39
2022/11/27 04:16:27;;;;;;;6.12;4.50;;;;;;;2.18;76.86;100409.08;1825758;78;20898;-38
2022/11/27 04:18:54;;;;;;;4.83;4.17;;;;;;;2.15;76.46;100415.80;1826004;78;20968;-38
2022/11/27 04:21:20;;;;;;;5.58;4.40;;;;;;;2.13;76.46;100414.49;1825656;78;20968;-38
2022/11/27 04:23:47;;;;;;;5.65;4.50;;;;;;;2.08;76.66;100409.95;1825541;78;21008;-38
2022/11/27 04:26:14;;;;;;;5.78;4.67;;;;;;;2.03;76.71;100413.99;1825824;78;21090;-39
2022/11/27 04:28:40;;;;;;;6.28;4.85;;;;;;;1.98;76.75;100413.25;1825637;78;20969;-39
2022/11/27 04:31:07;;;;;;;6.33;4.22;;;;;;;2.01;76.89;100411.34;1825684;78;20944;-39
2022/11/27 04:33:34;;;;;;;6.00;4.80;;;;;;;2.05;76.57;100414.52;1825663;78;20988;-39
2022/11/27 04:36:01;;;;;;;6.92;4.90;;;;;;;2.05;76.55;100412.39;1825558;78;21063;-39
2022/11/27 04:38:28;;;;;;;6.03;4.92;;;;;;;2.06;76.82;100412.12;1825848;78;21229;-39
2022/11/27 04:40:54;;;;;;;6.42;5.45;;;;;;;2.07;76.87;100416.93;1825667;78;21537;-39
2022/11/27 04:43:21;;;;;;;6.22;5.03;;;;;;;2.05;76.72;100419.07;1825694;78;21498;-39
2022/11/27 04:45:48;;;;;;;5.08;4.50;;;;;;;2.06;76.63;100410.78;1825926;78;21446;-39
2022/11/27 04:48:14;;;;;;;5.78;4.60;;;;;;;2.11;76.45;100404.59;1825666;78;21035;-39
2022/11/27 04:50:41;;;;;;;6.25;4.90;;;;;;;2.10;76.38;100404.33;1825814;78;21541;-39
2022/11/27 04:53:08;;;;;;;6.65;5.15;;;;;;;2.10;76.57;100410.48;1825651;78;21462;-38
2022/11/27 04:55:34;;;;;;;5.92;4.70;;;;;;;2.09;76.53;100408.08;1825645;78;21099;-39
2022/11/27 04:58:01;;;;;;;6.60;5.08;;;;;;;2.05;76.62;100410.52;1825675;78;21007;-39
2022/11/27 05:00:29;;;;;;;6.47;4.92;;;;;;;2.08;76.42;100406.50;1825743;78;20999;-38
2022/11/27 05:02:55;;;;;;;7.17;4.80;;;;;;;2.14;76.14;100404.83;1825661;78;21171;-39
2022/11/27 05:05:22;;;;;;;6.53;5.03;;;;;;;2.15;75.86;100401.09;1825558;78;20921;-38
2022/11/27 05:07:49;;;;;;;7.67;5.35;;;;;;;2.08;76.08;100404.59;1825607;78;20995;-39
2022/11/27 05:10:17;;;;;;;9.03;5.95;;;;;;;2.04;76.25;100411.58;1825771;78;21003;-38
2022/11/27 05:12:44;;;;;;;7.83;5.60;;;;;;;2.03;76.36;100406.53;1826041;78;21160;-39
2022/11/27 05:15:11;;;;;;;8.65;5.78;;;;;;;1.99;76.31;100411.61;1825808;78;21145;-39
2022/11/27 05:17:38;;;;;;;8.18;5.60;;;;;;;1.99;76.33;100407.60;1825828;78;20968;-39
2022/11/27 05:20:07;;;;;;;8.53;6.22;;;;;;;2.03;76.26;100408.64;1825982;78;21003;-39
2022/11/27 05:22:34;;;;;;;8.50;6.00;;;;;;;2.05;76.22;100409.17;1825927;78;21003;-38
2022/11/27 05:25:01;;;;;;;8.48;6.30;;;;;;;2.01;76.33;100406.00;1826078;78;21437;-38
2022/11/27 05:27:27;;;;;;;8.15;6.12;;;;;;;2.00;76.53;100403.86;1825776;78;21178;-39
2022/11/27 05:29:54;;;;;;;8.68;6.08;;;;;;;1.98;76.21;100406.56;1825739;78;20968;-38
2022/11/27 05:32:21;;;;;;;7.90;5.85;;;;;;;1.92;76.25;100408.47;1825580;78;21008;-39
2022/11/27 05:34:49;;;;;;;8.68;6.22;;;;;;;1.94;76.20;100408.97;1825616;78;20956;-39
2022/11/27 05:37:16;;;;;;;8.38;5.95;;;;;;;1.97;76.41;100411.11;1825646;78;21071;-39
2022/11/27 05:39:43;;;;;;;7.90;6.08;;;;;;;1.95;76.34;100406.56;1825657;78;21264;-38
2022/11/27 05:42:10;;;;;;;9.10;6.58;;;;;;;1.93;76.50;100415.41;1825610;78;20960;-39
2022/11/27 05:44:37;;;;;;;8.15;5.78;;;;;;;1.94;76.64;100413.52;1825575;78;21015;-38
2022/11/27 05:47:04;;;;;;;8.58;6.10;;;;;;;2.00;76.54;100414.55;1825615;78;21493;-39
2022/11/27 05:49:31;;;;;;;8.08;5.62;;;;;;;2.08;76.22;100414.52;1825619;78;21028;-39
2022/11/27 05:51:58;;;;;;;8.18;6.33;;;;;;;2.14;76.21;100416.06;1825669;78;21930;-38
2022/11/27 05:54:24;;;;;;;9.10;6.58;;;;;;;2.10;76.10;100416.36;1825532;78;20959;-39
2022/11/27 05:56:51;;;;;;;8.65;6.72;;;;;;;2.05;76.17;100415.06;1825646;78;21009;-39
2022/11/27 05:59:18;;;;;;;9.25;6.85;;;;;;;2.04;76.38;100417.47;1825462;78;21314;-38
2022/11/27 06:01:45;;;;;;;9.85;6.70;;;;;;;2.02;76.29;100421.78;1825658;78;21059;-39
2022/11/27 06:04:12;;;;;;;8.75;6.65;;;;;;;2.06;76.27;100422.02;1820920;78;21208;-39
2022/11/27 06:06:39;;;;;;;9.18;6.87;;;;;;;2.13;76.07;100422.52;1810754;79;21497;-39
2022/11/27 06:09:05;;;;;;;11.03;7.75;;;;;;;2.12;75.80;100423.05;1804837;79;20996;-39
2022/11/27 06:11:33;;;;;;;10.48;7.40;;;;;;;2.01;75.69;100428.20;1810820;79;21012;-39
2022/11/27 06:14:02;;;;;;;9.28;6.97;;;;;;;1.90;76.18;100429.32;1811044;79;20984;-39
2022/11/27 06:16:28;;;;;;;10.63;6.85;;;;;;;1.83;76.33;100430.70;1810994;79;21550;-39
2022/11/27 06:18:55;;;;;;;10.90;7.30;;;;;;;1.83;76.44;100434.72;1810945;79;20996;-38
2022/11/27 11:11:51;;;;;;;6.55;5.28;;;;;;;2.07;83.67;100387.52;1755934;80;22825;-38
2022/11/27 11:14:23;;;;;;;6.22;4.90;;;;;;;2.28;82.74;100382.79;1748621;81;21647;-38
2022/11/27 11:16:51;;;;;;;6.17;5.30;;;;;;;2.35;82.55;100380.61;1763996;81;21157;-38
2022/11/27 11:19:32;;;;;;;7.50;5.50;;;;;;;2.38;81.99;100380.03;1764504;81;21068;-38
2022/11/27 11:22:02;;;;;;;7.12;5.60;;;;;;;2.42;81.61;100383.78;1764679;81;20985;-39
2022/11/27 11:24:34;;;;;;;5.37;4.20;;;;;;;2.47;81.28;100383.73;1765273;81;21027;-39
2022/11/27 11:27:15;;;;;;;7.37;4.67;;;;;;;2.53;80.41;100390.08;1764845;81;20984;-38
2022/11/27 11:29:58;;;;;;;6.78;4.90;;;;;;;2.64;79.87;100386.78;1739375;81;22094;-39
2022/11/27 11:32:30;;;;;;;6.97;4.83;;;;;;;2.71;78.93;100381.11;1764744;81;21529;-38
2022/11/27 11:35:07;;;;;;;7.90;4.90;;;;;;;2.61;78.27;100385.45;1764564;81;21067;-38
2022/11/27 11:37:40;;;;;;;6.65;5.08;;;;;;;2.59;78.20;100388.16;1764701;81;21052;-39
2022/11/27 11:40:16;;;;;;;6.58;4.60;;;;;;;2.56;77.91;100384.73;1764757;81;20992;-39
2022/11/27 11:42:59;;;;;;;5.83;4.72;;;;;;;2.59;77.61;100388.16;1764783;81;21315;-39
2022/11/27 11:45:29;;;;;;;7.05;5.15;;;;;;;2.64;77.28;100385.44;1764876;81;20939;-39
2022/11/27 11:48:02;;;;;;;7.08;4.87;;;;;;;2.64;76.79;100386.78;1764197;81;20932;-39
2022/11/27 11:50:36;;;;;;;7.05;5.37;;;;;;;2.57;76.91;100383.63;1764831;81;21513;-39
2022/11/27 11:53:35;;;;;;;6.90;5.30;;;;;;;2.56;76.84;100387.41;1764788;81;21002;-39
2022/11/27 11:56:27;;;;;;;5.35;4.22;;;;;;;2.53;76.96;100383.92;1764695;81;21252;-39
2022/11/27 11:59:03;;;;;;;6.50;5.20;;;;;;;2.56;76.65;100392.75;1764645;81;21065;-38
2022/11/27 12:01:56;;;;;;;6.53;5.00;;;;;;;2.59;76.20;100390.84;1764631;81;21016;-39
2022/11/27 12:05:01;;;;;;;8.25;5.17;;;;;;;2.50;76.15;100389.86;1764309;81;21576;-39
2022/11/27 12:08:19;;;;;;;6.37;5.17;;;;;;;2.44;76.61;100390.43;1763712;81;21352;-39
2022/11/27 12:11:08;;;;;;;6.55;5.17;;;;;;;2.45;76.60;100400.60;1758965;81;21111;-39
2022/11/27 12:14:01;;;;;;;6.08;5.17;;;;;;;2.49;76.32;100399.76;1764411;81;21032;-39
2022/11/27 12:17:01;;;;;;;8.60;5.83;;;;;;;2.52;76.45;100395.17;1764271;81;21497;-39
2022/11/27 12:19:46;;;;;;;8.23;5.72;;;;;;;2.50;76.31;100400.02;1764203;81;21067;-39
2022/11/27 12:22:25;;;;;;;7.40;5.67;;;;;;;2.49;76.49;100395.74;1764271;81;21004;-39
2022/11/27 12:25:18;;;;;;;6.40;4.90;;;;;;;2.47;76.23;100394.44;1762730;81;23268;-39
2022/11/27 12:28:27;;;;;;;8.28;5.40;;;;;;;2.49;76.13;100397.62;1764129;81;20940;-39
2022/11/27 12:31:11;;;;;;;7.12;5.33;;;;;;;2.59;76.00;100400.21;1763913;81;21024;-39
2022/11/27 12:34:10;;;;;;;8.55;5.97;;;;;;;2.57;75.82;100397.00;1764069;81;21091;-40
2022/11/27 12:37:15;;;;;;;7.20;5.87;;;;;;;2.55;75.94;100391.95;1764242;81;21052;-39
2022/11/27 12:40:29;;;;;;;7.10;5.47;;;;;;;2.51;75.88;100390.13;1764037;81;21292;-39
2022/11/27 12:43:28;;;;;;;6.78;4.60;;;;;;;2.42;76.02;100394.48;1764024;81;20981;-39
2022/11/27 12:46:00;;;;;;;5.72;4.33;;;;;;;2.46;76.01;100392.30;1736463;81;21011;-39
2022/11/27 12:48:40;;;;;;;5.83;4.70;;;;;;;2.50;75.86;100397.34;1763369;81;21016;-39
2022/11/27 12:51:26;;;;;;;7.17;5.37;;;;;;;2.49;75.82;100392.27;1764250;81;21008;-40
2022/11/27 12:54:22;;;;;;;8.58;5.45;;;;;;;2.47;75.92;100399.80;1764084;81;21287;-40
2022/11/27 12:56:56;;;;;;;6.20;4.62;;;;;;;2.47;76.20;100404.58;1764072;81;20940;-40
2022/11/27 12:59:30;;;;;;;5.85;4.67;;;;;;;2.57;76.07;100403.70;1763806;81;21012;-40
2022/11/27 13:02:14;;;;;;;6.53;4.67;;;;;;;2.69;75.73;100408.69;1764049;81;20995;-40
2022/11/27 13:05:03;;;;;;;5.80;4.40;;;;;;;2.70;75.41;100408.42;1764028;81;20945;-39
2022/11/27 13:07:39;;;;;;;5.72;4.47;;;;;;;2.66;75.34;100406.05;1740695;81;21321;-39
2022/11/27 13:10:11;;;;;;;5.75;4.83;;;;;;;2.59;75.22;100400.21;1763541;81;21074;-40
2022/11/27 13:13:13;;;;;;;6.50;4.72;;;;;;;2.46;75.15;100401.67;1764241;81;21030;-39
2022/11/27 13:15:49;;;;;;;4.55;3.80;;;;;;;2.43;75.60;100396.86;1764077;81;20925;-39
2022/11/27 13:18:38;;;;;;;5.15;4.00;;;;;;;2.51;75.39;100400.29;1764242;81;21603;-39
2022/11/27 13:21:12;;;;;;;6.03;4.37;;;;;;;2.53;75.61;100405.34;1762768;81;21269;-40
2022/11/27 13:23:39;;;;;;;5.83;4.70;;;;;;;2.54;75.69;100405.61;1763815;81;21182;-39
2022/11/27 13:26:14;;;;;;;6.15;4.65;;;;;;;2.55;75.64;100398.64;1764029;81;21079;-39
2022/11/27 13:28:44;;;;;;;6.22;4.40;;;;;;;2.51;75.12;100400.83;1737904;81;20925;-39
2022/11/27 13:31:23;;;;;;;5.22;4.17;;;;;;;2.50;75.25;100399.22;1763824;81;21043;-39
2022/11/27 13:34:01;;;;;;;5.78;4.60;;;;;;;2.56;75.08;100404.27;1763886;81;21592;-38
2022/11/27 13:36:38;;;;;;;5.30;4.47;;;;;;;2.53;74.82;100402.66;1756738;81;21015;-40
2022/11/27 13:39:05;;;;;;;7.17;5.53;;;;;;;2.43;75.16;100408.90;1763070;81;20984;-39
2022/11/27 13:41:38;;;;;;;6.10;5.28;;;;;;;2.36;75.40;100408.44;1764009;81;20972;-39
2022/11/27 13:44:24;;;;;;;7.55;5.37;;;;;;;2.35;75.51;100401.48;1764188;81;21043;-39
2022/11/27 13:46:53;;;;;;;6.50;4.87;;;;;;;2.35;75.34;100406.03;1764060;81;21248;-40
2022/11/27 13:49:32;;;;;;;6.75;5.40;;;;;;;2.37;75.54;100406.56;1764286;81;21533;-40
2022/11/27 13:52:17;;;;;;;10.68;5.65;;;;;;;2.43;75.55;100404.88;1764398;81;20949;-40
2022/11/27 13:54:58;;;;;;;7.87;5.60;;;;;;;2.45;75.67;100408.62;1764390;81;21075;-40
2022/11/27 13:57:26;;;;;;;7.15;5.33;;;;;;;2.41;75.67;100404.38;1764022;81;21505;-40
2022/11/27 14:00:03;;;;;;;8.00;6.37;;;;;;;2.37;75.63;100409.23;1764190;81;21087;-40
2022/11/27 14:02:47;;;;;;;8.08;6.33;;;;;;;2.38;75.53;100412.15;1762456;81;21061;-40
2022/11/27 14:05:18;;;;;;;10.18;6.47;;;;;;;2.42;75.42;100409.97;1764198;81;20967;-40
2022/11/27 14:07:53;;;;;;;8.50;6.37;;;;;;;2.39;75.50;100408.41;1763827;81;20940;-40
2022/11/27 14:10:26;;;;;;;8.73;6.60;;;;;;;2.30;75.74;100411.42;1764148;81;22073;-40
2022/11/27 14:12:56;;;;;;;9.63;7.17;;;;;;;2.28;76.01;100407.67;1763876;81;21586;-40
2022/11/27 14:15:25;;;;;;;10.70;7.65;;;;;;;2.23;75.97;100410.38;1762146;81;21013;-40
2022/11/27 14:18:07;;;;;;;11.03;7.83;;;;;;;2.24;75.83;100414.66;1764220;81;20920;-40
2022/11/27 19:25:39;;;;;;;7.78;6.80;;;;;;;1.49;82.99;100442.61;1823039;78;22666;-38
2022/11/27 19:28:08;;;;;;;8.08;6.37;;;;;;;1.59;82.43;100441.24;1791689;79;20931;-38
2022/11/27 19:30:36;;;;;;;8.40;6.30;;;;;;;1.62;82.38;100442.02;1798242;79;21133;-39
2022/11/27 19:33:03;;;;;;;8.63;6.10;;;;;;;1.61;81.75;100437.75;1797868;79;21006;-40
2022/11/27 19:35:31;;;;;;;6.97;5.22;;;;;;;1.55;81.43;100434.85;1798082;79;20994;-39
2022/11/27 19:37:58;;;;;;;7.60;5.70;;;;;;;1.61;81.05;100426.52;1797933;79;20892;-39
2022/11/27 19:40:27;;;;;;;6.35;5.30;;;;;;;1.73;80.66;100427.02;1798024;79;20939;-40
2022/11/27 19:42:54;;;;;;;9.57;6.23;;;;;;;1.79;80.26;100426.45;1798276;79;21209;-39
2022/11/27 19:45:23;;;;;;;8.50;6.20;;;;;;;1.84;79.89;100426.97;1797607;79;21550;-39
2022/11/27 19:47:51;;;;;;;8.48;5.97;;;;;;;1.83;79.61;100432.84;1797751;79;21055;-39
2022/11/27 19:50:19;;;;;;;7.70;6.08;;;;;;;1.82;79.20;100427.77;1797809;79;20959;-39
2022/11/27 19:52:46;;;;;;;7.90;5.83;;;;;;;1.84;78.88;100429.64;1797905;79;21030;-40
2022/11/27 19:55:13;;;;;;;9.95;6.60;;;;;;;1.90;78.41;100431.99;1797680;79;21077;-39
2022/11/27 19:57:40;;;;;;;6.53;5.45;;;;;;;1.93;78.01;100433.33;1797815;79;21014;-39
2022/11/27 20:00:09;;;;;;;8.95;5.90;;;;;;;1.89;78.04;100433.06;1797856;79;21010;-39
2022/11/27 20:02:41;;;;;;;7.67;5.67;;;;;;;1.87;77.57;100439.23;1797671;79;21369;-39
2022/11/27 20:05:09;;;;;;;5.95;4.70;;;;;;;1.77;77.43;100433.14;1797778;79;21512;-40
2022/11/27 20:07:35;;;;;;;5.47;4.62;;;;;;;1.75;77.38;100428.86;1797667;79;21200;-40
2022/11/27 20:10:04;;;;;;;5.28;4.75;;;;;;;1.85;77.33;100429.34;1797768;79;21560;-40
2022/11/27 20:12:35;;;;;;;6.58;4.85;;;;;;;1.94;77.11;100434.91;1797881;79;20932;-39
2022/11/27 20:15:01;;;;;;;7.05;4.72;;;;;;;1.92;76.81;100440.55;1797412;79;20975;-40
2022/11/27 20:17:29;;;;;;;5.35;4.55;;;;;;;1.86;76.52;100432.81;1797691;79;20970;-39
2022/11/27 20:19:55;;;;;;;6.12;4.33;;;;;;;1.79;76.51;100441.16;1797935;79;21012;-39
2022/11/27 20:22:23;;;;;;;5.37;3.95;;;;;;;1.77;76.37;100445.17;1797800;79;21532;-40
2022/11/27 20:24:50;;;;;;;5.00;4.28;;;;;;;1.84;76.37;100443.01;1797758;79;21015;-40
2022/11/27 20:27:18;;;;;;;7.85;4.40;;;;;;;1.89;76.03;100438.97;1798068;79;20939;-40
2022/11/27 20:29:45;;;;;;;5.75;4.20;;;;;;;1.86;76.24;100444.85;1797945;79;21007;-40
2022/11/27 20:32:12;;;;;;;5.37;3.95;;;;;;;1.81;75.82;100447.02;1797953;79;21205;-40
2022/11/27 20:34:39;;;;;;;4.53;3.72;;;;;;;1.75;76.07;100452.91;1797976;79;20963;-40
2022/11/27 20:37:08;;;;;;;4.80;3.80;;;;;;;1.74;76.24;100438.52;1742480;79;20983;-38
2022/11/27 20:39:36;;;;;;;3.52;3.17;;;;;;;1.78;76.25;100432.06;1797797;79;21517;-39
2022/11/27 20:42:04;;;;;;;3.58;3.05;;;;;;;1.90;76.17;100435.20;1797807;79;21486;-38
2022/11/27 20:44:31;;;;;;;3.55;2.83;;;;;;;1.95;75.98;100435.97;1797371;79;23145;-38
2022/11/27 20:46:57;;;;;;;3.52;2.80;;;;;;;2.00;75.79;100436.48;1797513;79;21579;-39
2022/11/27 20:49:24;;;;;;;3.80;3.30;;;;;;;1.98;75.41;100438.13;1797491;79;20951;-39
2022/11/27 20:51:53;;;;;;;3.80;3.15;;;;;;;1.97;75.44;100443.20;1797833;79;20990;-39
2022/11/27 20:54:21;;;;;;;;;;;;;;;2.00;75.28;100445.31;1800109;79;20988;-38
2022/11/27 20:56:50;;;;;;;4.33;2.70;;;;;;;2.02;74.84;100447.19;1797661;79;22059;-38
2022/11/27 20:59:18;;;;;;;2.83;1.85;;;;;;;2.00;74.83;100444.50;1797563;79;20966;-39
2022/11/27 21:01:45;;;;;;;2.90;2.60;;;;;;;2.02;74.84;100445.84;1797254;79;21010;-38
2022/11/27 21:04:24;;;;;;;3.08;2.70;;;;;;;2.03;74.80;100440.73;1797407;79;20996;-39
2022/11/27 21:06:51;;;;;;;3.50;2.62;;;;;;;2.05;74.79;100441.80;1797676;79;20999;-40
2022/11/27 21:09:19;;;;;;;3.80;3.02;;;;;;;2.03;74.73;100445.31;1797290;79;21082;-39
2022/11/27 21:11:46;;;;;;;3.25;2.52;;;;;;;2.04;74.72;100436.19;1797327;79;21077;-40
2022/11/27 21:14:14;;;;;;;3.50;2.98;;;;;;;2.06;74.60;100437.53;1797310;79;20952;-40
2022/11/27 21:16:46;;;;;;;3.62;3.08;;;;;;;2.14;74.17;100438.27;1766156;79;20976;-40
2022/11/27 21:19:18;;;;;;;5.05;3.87;;;;;;;2.14;74.18;100446.30;1797373;79;20974;-40
2022/11/27 21:21:47;;;;;;;4.12;3.65;;;;;;;2.12;73.96;100445.79;1797248;79;20952;-39
2022/11/27 21:24:15;;;;;;;5.28;4.20;;;;;;;2.02;73.85;100450.39;1794870;79;20924;-40
2022/11/27 21:26:43;;;;;;;6.53;4.70;;;;;;;1.91;74.09;100450.17;1786297;80;21008;-39
2022/11/27 21:29:11;;;;;;;5.10;4.30;;;;;;;1.85;74.26;100450.73;1786383;80;20973;-39
2022/11/27 21:31:40;;;;;;;4.83;4.25;;;;;;;1.89;74.05;100455.02;1786726;80;21552;-39
2022/11/27 21:34:10;;;;;;;6.35;4.92;;;;;;;1.90;74.07;100452.58;1786598;80;21255;-40
2022/11/27 21:36:37;;;;;;;6.13;5.10;;;;;;;1.82;74.31;100449.95;1765299;80;21015;-39
2022/11/27 21:39:07;;;;;;;6.67;5.35;;;;;;;1.77;74.75;100451.85;1786172;79;21220;-39
2022/11/27 21:41:34;;;;;;;6.20;5.20;;;;;;;1.75;74.85;100452.91;1786617;80;21079;-40
2022/11/27 21:44:01;;;;;;;7.65;5.08;;;;;;;1.75;75.02;100454.78;1786033;79;21023;-39
2022/11/27 21:46:30;;;;;;;4.92;4.42;;;;;;;1.80;74.97;100448.62;1786364;79;21077;-39
2022/11/27 21:48:59;;;;;;;6.67;5.42;;;;;;;1.85;74.82;100445.38;1786263;80;20924;-39
2022/11/27 21:51:27;;;;;;;7.03;5.67;;;;;;;1.92;75.01;100439.75;1786449;80;21020;-39
2022/11/27 21:53:55;;;;;;;7.97;5.95;;;;;;;1.99;75.01;100454.94;1786267;80;21015;-39
2022/11/27 21:56:24;;;;;;;6.85;5.58;;;;;;;2.02;74.70;100447.72;1786485;80;20989;-39
2022/11/27 21:58:51;;;;;;;7.10;5.22;;;;;;;1.97;74.65;100447.74;1786457;80;21108;-40
2022/11/27 22:01:21;;;;;;;7.10;5.75;;;;;;;1.90;74.54;100454.72;1786079;79;21030;-39
2022/11/27 22:03:53;;;;;;;7.40;5.65;;;;;;;1.85;74.56;100452.07;1786244;79;21001;-39
2022/11/27 22:06:17;;;;;;;6.42;5.62;;;;;;;1.89;74.32;100456.36;1785313;80;21011;-39
2022/11/27 22:08:45;;;;;;;7.08;5.80;;;;;;;1.84;74.45;100454.48;1786439;79;20987;-39
2022/11/27 22:11:16;;;;;;;7.03;5.87;;;;;;;1.83;74.68;100452.90;1786442;79;21831;-39
2022/11/27 22:13:44;;;;;;;7.67;6.25;;;;;;;1.81;74.77;100451.02;1786607;80;21003;-39
2022/11/27 22:16:15;;;;;;;9.00;6.58;;;;;;;1.82;74.82;100459.31;1786437;80;20928;-39
2022/11/27 22:18:42;;;;;;;7.15;5.87;;;;;;;1.81;74.56;100456.38;1785739;80;21462;-39
2022/11/27 22:21:09;;;;;;;10.05;6.25;;;;;;;1.80;74.33;100458.78;1786010;80;21043;-39
2022/11/27 22:23:38;;;;;;;9.25;7.20;;;;;;;1.81;74.50;100452.36;1786147;80;21103;-39
2022/11/27 22:26:09;;;;;;;8.05;6.53;;;;;;;1.77;74.68;100459.34;1786123;79;21065;-39
2022/11/27 22:28:36;;;;;;;9.50;7.70;;;;;;;1.74;74.74;100463.91;1786055;80;21003;-39
2022/11/27 22:31:19;;;;;;;7.95;6.45;;;;;;;1.70;74.76;100458.81;1786126;80;21010;-39
2022/11/27 22:33:46;;;;;;;7.67;6.35;;;;;;;1.61;74.74;100455.92;1786223;80;21059;-39
2022/11/27 22:36:22;;;;;;;7.97;6.33;;;;;;;1.67;75.04;100456.70;1786195;80;21234;-39
2022/11/27 22:38:51;;;;;;;7.62;6.25;;;;;;;1.74;74.87;100467.92;1786174;80;21003;-39
2022/11/27 22:41:21;;;;;;;7.03;6.15;;;;;;;1.76;75.09;100469.76;1786312;80;21014;-40
2022/11/27 22:43:48;;;;;;;7.15;5.87;;;;;;;1.77;74.89;100468.70;1786225;79;21071;-40
2022/11/27 22:46:23;;;;;;;7.00;5.70;;;;;;;1.72;74.64;100470.05;1786355;79;21059;-39
2022/11/27 22:48:54;;;;;;;8.00;5.62;;;;;;;1.72;74.71;100473.52;1786353;80;21849;-40
2022/11/27 22:51:22;;;;;;;7.12;5.28;;;;;;;1.44;74.48;100417.25;1764627;80;20959;-40
2022/11/27 22:53:49;;;;;;;7.00;5.40;;;;;;;1.84;74.34;100471.08;1786362;80;20936;-40
2022/11/27 22:56:16;;;;;;;6.20;5.60;;;;;;;1.79;74.32;100476.45;1786140;79;21391;-40
2022/11/27 22:58:43;;;;;;;6.22;5.42;;;;;;;1.78;74.38;100480.19;1786286;80;21035;-39
2022/11/27 23:01:22;;;;;;;5.65;5.03;;;;;;;1.74;74.41;100478.61;1786059;80;21124;-40
2022/11/27 23:03:50;;;;;;;7.22;4.97;;;;;;;1.72;74.38;100474.86;1785854;79;20936;-40
2022/11/27 23:06:19;;;;;;;6.28;4.78;;;;;;;1.75;74.30;100472.16;1764464;80;21000;-40
2022/11/27 23:08:47;;;;;;;5.20;4.70;;;;;;;1.86;74.33;100476.94;1786162;80;20963;-39
2022/11/27 23:11:18;;;;;;;6.00;4.78;;;;;;;1.88;74.24;100479.62;1785989;80;21195;-40
2022/11/27 23:13:45;;;;;;;5.47;4.20;;;;;;;1.80;74.07;100478.83;1786312;79;21394;-40
2022/11/27 23:16:12;;;;;;;5.67;4.75;;;;;;;1.70;74.15;100476.19;1786143;80;21018;-40
2022/11/27 23:18:40;;;;;;;5.70;4.87;;;;;;;1.62;74.21;100478.11;1786203;80;20967;-40
2022/11/27 23:21:14;;;;;;;5.00;4.50;;;;;;;1.62;74.34;100479.44;1786121;80;20959;-39
2022/11/27 23:23:41;;;;;;;5.85;4.92;;;;;;;1.67;74.40;100482.09;1786217;80;21071;-40
2022/11/27 23:26:10;;;;;;;6.95;5.35;;;;;;;1.70;74.52;100478.87;1793991;79;21131;-40
2022/11/27 23:28:37;;;;;;;6.00;5.25;;;;;;;1.68;74.46;100479.69;1797410;79;21023;-40
2022/11/27 23:31:11;;;;;;;7.37;5.70;;;;;;;1.70;74.68;100478.33;1797636;79;21520;-40
2022/11/27 23:33:38;;;;;;;5.70;4.72;;;;;;;1.73;74.64;100478.34;1797612;79;21506;-39
2022/11/27 23:36:06;;;;;;;5.45;4.55;;;;;;;1.75;74.42;100480.19;1797509;79;21055;-40
